Route Details

Aircraft Information
Group: North America Fleet
Types: B738, B752, B762, B763
Route Data
Distance: 1370nm
Duration: 3h 54m
Origin METAR: TJSJ 080056Z 10007KT 10SM FEW021 SCT041 SCT085 24/22 A3011 RMK AO2 RAB28E50 SLP194 P0003 T02440217
Dest. METAR: KIAD 080052Z 17004KT 10SM BKN150 OVC200 09/00 A3015 RMK AO2 SLP211 T00940000
Freight Data
(for Feb 8, 2023)
Load Factor:
77%
Manifested Cargo: 68,857lbs
Financial History
Total Freight: 49,003lbs
Average Load: 0lbs/flt
Fuel Used: 30,053lbs
Avg. Fuel Used: 0lbs/flt
Fuel Expense: $16,529
Avg. Fuel Expense: $0
Avg. Fuel Cost: $0/lbs
Total Gross Income: $132,798
Pilot Pay: $239
Total Expenses: $28,687
Total Revenue: $86,215
Average Revenue: $0

Capitol Logistics 349




TJSJ
Luis Munoz Marin International Airport
San Juan, PR
KIAD
Washington Dulles International Airport
Dulles, US

Activity Log

Date Flight Route Aircraft Duration
07/23/2022 CPX349 ACONY3 PALDE DCT DONQU DCT LETON L451 JAINS DCT CLOWR DCT GARIC Q129 YERBA DCT MAYKR DCT TRSSK CAVLR4 B762 3h 35m